地図

経路データ

SID SEASON NUMBER BASIN SUBBASIN NAME ISO_TIME NATURE LAT LON WMO_WIND WMO_PRES WMO_AGENCY TRACK_TYPE DIST2LAND LANDFALL IFLAG USA_AGENCY USA_ATCF_ID USA_LAT USA_LON USA_RECORD USA_STATUS USA_WIND USA_PRES USA_SSHS USA_R34_NE USA_R34_SE USA_R34_SW USA_R34_NW USA_R50_NE USA_R50_SE USA_R50_SW USA_R50_NW USA_R64_NE USA_R64_SE USA_R64_SW USA_R64_NW USA_POCI USA_ROCI USA_RMW USA_EYE TOKYO_LAT TOKYO_LON TOKYO_GRADE TOKYO_WIND TOKYO_PRES TOKYO_R50_DIR TOKYO_R50_LONG TOKYO_R50_SHORT TOKYO_R30_DIR TOKYO_R30_LONG TOKYO_R30_SHORT TOKYO_LAND CMA_LAT CMA_LON CMA_CAT CMA_WIND CMA_PRES HKO_LAT HKO_LON HKO_CAT HKO_WIND HKO_PRES NEWDELHI_LAT NEWDELHI_LON NEWDELHI_GRADE NEWDELHI_WIND NEWDELHI_PRES NEWDELHI_CI NEWDELHI_DP NEWDELHI_POCI REUNION_LAT REUNION_LON REUNION_TYPE REUNION_WIND REUNION_PRES REUNION_TNUM REUNION_CI REUNION_RMW REUNION_R34_NE REUNION_R34_SE REUNION_R34_SW REUNION_R34_NW REUNION_R50_NE REUNION_R50_SE REUNION_R50_SW REUNION_R50_NW REUNION_R64_NE REUNION_R64_SE REUNION_R64_SW REUNION_R64_NW BOM_LAT BOM_LON BOM_TYPE BOM_WIND BOM_PRES BOM_TNUM BOM_CI BOM_RMW BOM_R34_NE BOM_R34_SE BOM_R34_SW BOM_R34_NW BOM_R50_NE BOM_R50_SE BOM_R50_SW BOM_R50_NW BOM_R64_NE BOM_R64_SE BOM_R64_SW BOM_R64_NW BOM_ROCI BOM_POCI BOM_EYE BOM_POS_METHOD BOM_PRES_METHOD NADI_LAT NADI_LON NADI_CAT NADI_WIND NADI_PRES WELLINGTON_LAT WELLINGTON_LON WELLINGTON_WIND WELLINGTON_PRES DS824_LAT DS824_LON DS824_STAGE DS824_WIND DS824_PRES TD9636_LAT TD9636_LON TD9636_STAGE TD9636_WIND TD9636_PRES TD9635_LAT TD9635_LON TD9635_WIND TD9635_PRES TD9635_ROCI NEUMANN_LAT NEUMANN_LON NEUMANN_CLASS NEUMANN_WIND NEUMANN_PRES MLC_LAT MLC_LON MLC_CLASS MLC_WIND MLC_PRES USA_GUST BOM_GUST BOM_GUST_PER REUNION_GUST REUNION_GUST_PER USA_SEAHGT USA_SEARAD_NE USA_SEARAD_SE USA_SEARAD_SW USA_SEARAD_NW STORM_SPEED STORM_DIR
1854176N26268 1854 5 NA GM NOT_NAMED 1854-06-25 00:00:00 TS 26.0000 -92.5000 60 hurdat_atl main 380 380 O_____________ hurdat_atl AL011854 26.0000 -92.5000 TS 60 0 4 270
1854176N26268 1854 5 NA GM NOT_NAMED 1854-06-25 03:00:00 TS 26.0001 -92.7500 main 393 393 P_____________ AL011854 26.0001 -92.7500 TS 60 0 4 228
1854176N26268 1854 5 NA GM NOT_NAMED 1854-06-25 06:00:00 TS 25.7143 -92.8572 60 hurdat_atl main 421 401 O____________O hurdat_atl AL011854 26.0000 -93.0000 TS 60 0 24.0000 -92.0000 TS 60 5 222
1854176N26268 1854 5 NA GM NOT_NAMED 1854-06-25 09:00:00 TS 25.6520 -93.0974 main 401 382 P____________P AL011854 26.0000 -93.2500 TS 65 1 24.2602 -92.4871 TS 60 5 255
1854176N26268 1854 5 NA GM NOT_NAMED 1854-06-25 12:00:00 TS 25.5909 -93.3636 70 hurdat_atl main 372 343 O____________O hurdat_atl AL011854 26.0000 -93.5000 HU 70 1 24.5000 -93.0000 TS 60 5 261
1854176N26268 1854 5 NA GM NOT_NAMED 1854-06-25 15:00:00 TS 25.5691 -93.6734 main 343 313 P____________P AL011854 25.9999 -93.7350 HU 70 1 24.7075 -93.5502 TS 62 6 274
1854176N26268 1854 5 NA GM NOT_NAMED 1854-06-25 18:00:00 TS 25.6333 -94.0333 70 hurdat_atl main 313 272 O____________O hurdat_atl AL011854 26.0000 -94.0000 HU 70 1 24.9000 -94.1000 HU 65 7 281
1854176N26268 1854 5 NA GM NOT_NAMED 1854-06-25 21:00:00 TS 25.6948 -94.4085 main 272 230 P____________P AL011854 25.9923 -94.3126 HU 70 1 25.0997 -94.6002 HU 65 7 280
1854176N26268 1854 5 NA GM NOT_NAMED 1854-06-26 00:00:00 TS 25.7667 -94.8333 70 hurdat_atl main 230 180 O____________O hurdat_atl AL011854 26.0000 -94.7000 HU 70 1 25.3000 -95.1000 HU 65 8 281
1854176N26268 1854 5 NA GM NOT_NAMED 1854-06-26 03:00:00 TS 25.8615 -95.3200 main 180 129 P____________P AL011854 26.0423 -95.1550 HU 70 1 25.5000 -95.6501 HU 65 10 282
1854176N26268 1854 5 NA GM NOT_NAMED 1854-06-26 06:00:00 TS 25.9667 -95.8667 70 hurdat_atl main 119 70 O____________O hurdat_atl AL011854 26.1000 -95.7000 HU 70 1 25.7000 -96.2000 HU 65 10 281
1854176N26268 1854 5 NA GM NOT_NAMED 1854-06-26 09:00:00 TS 26.0639 -96.4419 main 70 14 P____________P AL011854 26.1423 -96.3127 HU 70 1 25.9072 -96.7001 HU 65 11 281
1854176N26268 1854 5 NA GM NOT_NAMED 1854-06-26 12:00:00 TS 26.1667 -97.0667 70 hurdat_atl main 19 0 O____________O hurdat_atl AL011854 26.2000 -97.0000 L HU 70 1 26.1000 -97.2000 HU 65 12 280
1854176N26268 1854 5 NA NA NOT_NAMED 1854-06-26 15:00:00 TS 26.2657 -97.7378 main 0 0 P____________P AL011854 26.2773 -97.7353 HU 60 0 26.2424 -97.7429 HU 57 12 281
1854176N26268 1854 5 NA NA NOT_NAMED 1854-06-26 18:00:00 TS 26.4000 -98.4333 50 hurdat_atl main 0 0 O____________O hurdat_atl AL011854 26.4000 -98.5000 TS 50 0 26.4000 -98.3000 TS 50 13 285
1854176N26268 1854 5 NA NA NOT_NAMED 1854-06-26 21:00:00 TS 26.5913 -99.1169 main 0 0 P____________P AL011854 26.5696 -99.2503 TS 45 0 26.6348 -98.8500 TS 45 13 290
1854176N26268 1854 5 NA NA NOT_NAMED 1854-06-27 00:00:00 TS 26.8333 -99.8000 40 hurdat_atl main 0 0 O____________O hurdat_atl AL011854 26.8000 -100.000 TS 40 0 26.9000 -99.4000 TS 40 13 293
1854176N26268 1854 5 NA NA NOT_NAMED 1854-06-27 03:00:00 TS 27.1063 -100.483 main 0 0 P____________P AL011854 27.0846 -100.750 TS 40 0 27.1498 -99.9502 TS 35 13 295
1854176N26268 1854 5 NA NA NOT_NAMED 1854-06-27 06:00:00 TS 27.4000 -101.167 40 hurdat_atl main 0 0 O____________O hurdat_atl AL011854 27.4000 -101.500 TS 40 0 27.4000 -100.500 TD 30 13 296
1854176N26268 1854 5 NA NA NOT_NAMED 1854-06-27 09:00:00 TS 27.6873 -101.849 main 0 0 P____________P AL011854 27.7058 -102.249 TS 40 0 27.6504 -101.049 TD 27 13 295
1854176N26268 1854 5 NA NA NOT_NAMED 1854-06-27 12:00:00 TS 27.9667 -102.533 40 hurdat_atl main 0 O____________O hurdat_atl AL011854 28.0000 -103.000 TS 40 0 27.9000 -101.600 TD 25 13 295

IBTrACS Databaseについて

本データベースは、米国NOAAが公開する1842年以降の世界の熱帯低気圧のベストトラックデータアーカイブInternational Best Track Archive for Climate Stewardship (IBTrACS)を、ウェブで閲覧しやすい形式に変換したものです。

最終更新日:2021-10-21